Time;durP1;ratioP1;P1;durP2;ratioP2;P2;SDS_P1;SDS_P2;PMS_P1;PMS_P2;Temp;Humidity;BMP_temperature;BMP_pressure;BME280_temperature;BME280_humidity;BME280_pressure;Samples;Min_cycle;Max_cycle;Signal;HPM_P1;HPM_P2
2022/04/02 00:00:52;;;;;;;10.30;4.05;;;;;;;3.06;41.16;99400.42;739508;1155;115021;-75
2022/04/02 00:15:54;;;;;;;8.25;4.33;;;;;;;2.99;41.73;99400.03;739332;1154;115038;-76
2022/04/02 00:30:56;;;;;;;20.00;7.45;;;;;;;3.01;41.54;99390.39;739542;1155;114899;-76
2022/04/02 00:46:02;;;;;;;8.40;3.93;;;;;;;2.86;42.22;99379.33;739684;1154;114996;-76
2022/04/02 01:01:06;;;;;;;;;;;;;;;2.60;42.19;99371.64;739982;1155;114894;-76
2022/04/02 01:16:08;;;;;;;5.65;3.08;;;;;;;2.54;42.53;99371.23;738817;1155;101262;-74
2022/04/02 01:31:11;;;;;;;9.83;3.73;;;;;;;2.41;42.60;99373.83;739281;1155;115018;-75
2022/04/02 01:46:14;;;;;;;8.35;3.18;;;;;;;2.21;43.08;99370.84;738743;1154;115393;-75
2022/04/02 02:01:17;;;;;;;10.05;3.73;;;;;;;2.07;43.19;99369.20;739344;1155;114837;-75
2022/04/02 02:16:19;;;;;;;5.93;2.40;;;;;;;2.00;43.79;99383.46;738975;1154;114947;-76
2022/04/02 02:31:21;;;;;;;3.90;2.15;;;;;;;1.87;44.15;99373.09;739270;1155;114816;-75
2022/04/02 02:46:24;;;;;;;5.78;3.20;;;;;;;1.74;45.40;99386.03;738833;1155;114931;-75
2022/04/02 03:01:26;;;;;;;4.35;2.25;;;;;;;1.65;45.64;99384.05;738955;1155;115079;-75
2022/04/02 03:16:28;;;;;;;3.95;2.43;;;;;;;1.51;45.97;99377.17;738946;1155;114662;-77
2022/04/02 03:31:31;;;;;;;3.55;2.58;;;;;;;1.44;46.98;99389.67;739261;1155;115057;-76
2022/04/02 04:01:54;;;;;;;11.58;6.90;;;;;;;1.42;47.99;99393.28;739011;1155;114963;-77
2022/04/02 04:16:56;;;;;;;8.40;3.83;;;;;;;1.38;47.22;99400.39;739563;1153;114187;-75
2022/04/02 04:31:58;;;;;;;17.23;4.80;;;;;;;1.45;48.05;99406.84;739474;1154;115253;-75
2022/04/02 04:47:01;;;;;;;8.45;4.00;;;;;;;1.52;48.26;99433.13;738965;1155;115383;-78
2022/04/02 05:02:04;;;;;;;10.97;4.80;;;;;;;1.61;48.60;99431.69;738997;1153;114994;-78
2022/04/02 05:17:06;;;;;;;24.50;10.00;;;;;;;1.82;48.74;99432.91;739807;1155;115334;-74
2022/04/02 05:32:08;;;;;;;20.98;12.83;;;;;;;2.02;49.92;99442.86;739521;1155;115460;-77
2022/04/02 05:47:11;;;;;;;8.17;4.50;;;;;;;2.39;49.31;99451.61;740263;1155;115188;-78
2022/04/02 06:02:18;;;;;;;6.13;3.13;;;;;;;2.60;49.25;99456.25;740251;1155;115216;-79
2022/04/02 06:17:21;;;;;;;11.75;4.70;;;;;;;2.91;49.13;99467.92;739574;1155;114878;-71
2022/04/02 06:32:25;;;;;;;25.17;9.53;;;;;;;3.46;49.34;99481.38;739561;1155;115097;-71
2022/04/02 06:47:30;;;;;;;11.03;6.03;;;;;;;4.40;48.33;99502.27;739451;1154;114199;-70
2022/04/02 07:02:32;;;;;;;17.13;5.48;;;;;;;5.34;47.66;99504.66;739161;1155;115258;-72
2022/04/02 07:17:34;;;;;;;11.53;5.70;;;;;;;5.96;46.38;99507.57;739505;1155;114041;-72
2022/04/02 07:32:37;;;;;;;20.05;10.05;;;;;;;7.68;45.81;99512.28;740180;1153;115157;-76
2022/04/02 07:47:49;;;;;;;20.40;7.43;;;;;;;8.19;44.03;99512.16;740221;1155;115055;-72
2022/04/02 08:02:51;;;;;;;8.17;3.57;;;;;;;8.82;42.36;99507.23;740386;1155;114844;-73
2022/04/02 08:17:54;;;;;;;10.10;4.93;;;;;;;8.66;41.65;99507.02;739818;1155;114365;-73
2022/04/02 08:33:16;;;;;;;11.95;5.55;;;;;;;9.15;41.12;99528.59;741077;1154;114389;-72
2022/04/02 08:48:24;;;;;;;20.43;9.37;;;;;;;9.67;37.97;99527.20;739910;1154;115187;-72
2022/04/02 09:04:00;;;;;;;12.37;5.90;;;;;;;10.56;37.04;99522.13;740048;1153;114271;-74
2022/04/02 09:19:31;;;;;;;37.40;16.28;;;;;;;10.92;35.56;99522.00;739552;1153;114963;-72
2022/04/02 09:34:58;;;;;;;17.68;11.35;;;;;;;11.28;34.88;99529.70;739616;1155;114122;-73
2022/04/02 09:50:11;;;;;;;18.70;9.00;;;;;;;11.72;33.97;99519.00;739436;1155;115689;-74
2022/04/02 10:05:19;;;;;;;9.60;4.60;;;;;;;13.40;33.66;99522.95;739886;1155;114275;-74
2022/04/02 10:20:30;;;;;;;15.08;7.13;;;;;;;13.42;33.32;99520.94;739975;1155;114554;-75
2022/04/02 10:35:32;;;;;;;23.43;12.68;;;;;;;13.40;33.38;99534.29;739297;1155;115336;-77
2022/04/02 10:50:37;;;;;;;10.53;5.20;;;;;;;13.52;33.00;99523.38;740621;1154;115119;-72
2022/04/02 11:05:40;;;;;;;11.43;5.13;;;;;;;14.12;33.09;99527.09;740188;1155;115681;-74
2022/04/02 11:20:43;;;;;;;12.07;6.77;;;;;;;14.02;32.73;99532.61;740515;1155;114675;-74
2022/04/02 11:35:49;;;;;;;14.23;6.73;;;;;;;12.75;31.91;99530.86;739622;1155;115502;-72
2022/04/02 11:50:52;;;;;;;23.23;10.20;;;;;;;13.72;32.32;99521.92;739717;1153;115584;-75
2022/04/02 12:05:54;;;;;;;12.43;6.53;;;;;;;14.02;31.56;99514.16;739540;1153;115245;-74
2022/04/02 12:21:07;;;;;;;44.70;19.13;;;;;;;14.61;31.54;99507.39;739651;1155;115495;-73
2022/04/02 12:36:09;;;;;;;24.93;11.87;;;;;;;15.63;32.36;99522.52;739887;1154;115926;-73
2022/04/02 12:51:14;;;;;;;15.60;6.75;;;;;;;15.72;31.72;99527.72;739974;1155;115212;-74
2022/04/02 13:06:22;;;;;;;12.13;5.10;;;;;;;15.32;31.26;99512.20;739559;1155;115646;-77
2022/04/02 13:21:34;;;;;;;22.87;9.83;;;;;;;15.80;31.34;99530.23;740252;1155;115732;-75
2022/04/02 13:36:58;;;;;;;60.73;11.48;;;;;;;16.12;31.08;99542.16;741267;1155;114565;-73
2022/04/02 13:52:02;;;;;;;11.10;6.13;;;;;;;16.55;31.92;99551.06;741483;1155;115457;-73
2022/04/02 14:07:07;;;;;;;10.80;6.20;;;;;;;22.38;30.10;99572.78;739240;1155;115501;-73
2022/04/02 14:22:13;;;;;;;35.80;13.98;;;;;;;18.81;29.52;99569.80;740172;1155;115651;-73
2022/04/02 14:37:34;;;;;;;9.33;4.13;;;;;;;16.73;30.90;99585.82;739217;1155;115326;-73
2022/04/02 14:53:15;;;;;;;8.67;3.40;;;;;;;22.01;30.02;99589.73;739463;1153;115514;-73
2022/04/02 15:08:49;;;;;;;13.08;4.33;;;;;;;23.28;28.40;99613.62;739359;1155;114622;-72
2022/04/02 15:23:59;;;;;;;16.17;4.97;;;;;;;18.30;29.93;99635.76;739482;1154;115598;-72
2022/04/02 15:39:03;;;;;;;19.35;4.98;;;;;;;18.03;31.50;99648.17;739579;1154;114992;-72
2022/04/02 15:54:27;;;;;;;10.37;4.50;;;;;;;14.26;33.26;99660.05;739302;1155;115521;-73
2022/04/02 16:09:38;;;;;;;126.45;42.85;;;;;;;17.18;33.12;99698.67;740516;1155;115694;-73
2022/04/02 16:24:44;;;;;;;18.70;7.28;;;;;;;11.53;35.59;99724.16;739433;1155;115962;-73
2022/04/02 16:39:51;;;;;;;13.20;8.27;;;;;;;9.33;37.72;99745.09;739150;1154;114384;-75
2022/04/02 16:54:56;;;;;;;55.28;17.88;;;;;;;7.78;41.59;99755.94;739715;1154;114063;-71
2022/04/02 17:10:05;;;;;;;26.80;8.43;;;;;;;6.83;42.97;99778.48;739734;1155;115453;-71
2022/04/02 17:25:11;;;;;;;22.13;8.37;;;;;;;6.03;44.83;99804.78;739913;1155;114571;-70
2022/04/02 17:40:15;;;;;;;58.20;19.03;;;;;;;5.59;45.70;99826.20;739826;1154;115227;-70
2022/04/02 17:55:27;;;;;;;27.55;10.25;;;;;;;5.20;46.28;99845.58;739424;1155;115553;-77
2022/04/02 18:10:32;;;;;;;38.93;13.18;;;;;;;4.92;46.93;99860.56;739620;1155;115018;-77
2022/04/02 18:25:35;;;;;;;16.33;6.80;;;;;;;4.58;48.14;99868.13;739924;1155;114757;-77
2022/04/02 18:40:40;;;;;;;35.30;12.65;;;;;;;4.40;48.51;99884.06;739840;1155;115121;-76
2022/04/02 18:55:43;;;;;;;18.30;7.43;;;;;;;4.15;49.52;99903.08;739685;1154;114916;-76
2022/04/02 19:10:48;;;;;;;46.05;14.55;;;;;;;3.91;50.03;99905.56;742225;1155;114742;-77
2022/04/02 19:25:51;;;;;;;46.80;14.78;;;;;;;3.70;51.18;99919.00;739905;1155;115341;-76
2022/04/02 19:40:54;;;;;;;53.73;17.50;;;;;;;3.59;50.92;99930.08;739960;1155;114354;-77
2022/04/02 19:55:57;;;;;;;52.25;13.45;;;;;;;3.46;51.45;99934.40;739489;1155;114041;-77
2022/04/02 20:10:59;;;;;;;91.53;21.80;;;;;;;3.35;51.75;99934.23;739535;1154;115060;-77
2022/04/02 20:26:02;;;;;;;50.95;15.45;;;;;;;3.20;52.39;99938.64;739126;1155;114561;-77
2022/04/02 20:41:05;;;;;;;92.68;25.00;;;;;;;3.11;52.87;99947.81;739275;1155;114855;-78
2022/04/02 20:56:14;;;;;;;175.68;39.13;;;;;;;2.94;53.15;99946.27;739111;1155;113864;-78
2022/04/02 21:11:18;;;;;;;270.88;73.53;;;;;;;2.79;53.60;99951.45;739621;1155;114771;-78
2022/04/02 21:26:20;;;;;;;128.53;30.75;;;;;;;2.69;53.87;99958.11;739893;1155;114945;-73
2022/04/02 21:41:23;;;;;;;65.10;16.97;;;;;;;2.57;54.08;99974.40;739529;1155;115674;-72
2022/04/02 21:56:25;;;;;;;48.03;15.93;;;;;;;2.42;54.41;99971.80;739687;1155;115233;-69
2022/04/02 22:11:47;;;;;;;47.47;14.33;;;;;;;2.25;54.92;99974.55;739971;1154;114808;-71
2022/04/02 22:26:50;;;;;;;43.18;11.85;;;;;;;2.13;55.38;99987.27;739140;1155;115513;-70
2022/04/02 22:41:52;;;;;;;66.38;15.48;;;;;;;2.06;55.90;99985.97;739120;1155;115239;-71
2022/04/02 22:56:54;;;;;;;47.78;12.10;;;;;;;1.94;56.69;99999.58;738785;1155;113876;-71
2022/04/02 23:12:00;;;;;;;119.75;20.95;;;;;;;1.88;56.99;100008.53;738903;1155;115016;-71
2022/04/02 23:27:02;;;;;;;48.28;12.65;;;;;;;1.79;57.05;100009.05;738754;1155;115208;-71
2022/04/02 23:42:05;;;;;;;86.00;18.68;;;;;;;1.64;57.24;100001.22;738849;1155;115377;-71
2022/04/02 23:57:07;;;;;;;39.63;11.73;;;;;;;1.51;57.61;100012.34;739338;1155;115303;-71
